Time;durP1;ratioP1;P1;durP2;ratioP2;P2;SDS_P1;SDS_P2;PMS_P1;PMS_P2;Temp;Humidity;BMP_temperature;BMP_pressure;BME280_temperature;BME280_humidity;BME280_pressure;Samples;Min_cycle;Max_cycle;Signal;HPM_P1;HPM_P2
2022/09/11 00:02:10;;;;;;;11.70;10.93;;;;;;;;;;5215379;28;20133;-78
2022/09/11 00:04:40;;;;;;;13.73;12.57;;;;;;;;;;5212802;28;20260;-80
2022/09/11 00:07:10;;;;;;;15.05;13.52;;;;;;;;;;5215310;28;20045;-82
2022/09/11 00:09:41;;;;;;;15.37;13.37;;;;;;;;;;5215404;28;20434;-81
2022/09/11 00:12:11;;;;;;;13.70;12.15;;;;;;;;;;5216037;28;20828;-80
2022/09/11 00:14:41;;;;;;;11.77;10.97;;;;;;;;;;5214557;28;20036;-80
2022/09/11 00:17:11;;;;;;;13.03;12.13;;;;;;;;;;5215198;28;20992;-81
2022/09/11 00:19:42;;;;;;;13.43;12.47;;;;;;;;;;5214502;28;20292;-81
2022/09/11 00:22:12;;;;;;;15.30;13.93;;;;;;;;;;5214884;28;20271;-81
2022/09/11 00:24:42;;;;;;;12.70;11.80;;;;;;;;;;5214126;28;20460;-82
2022/09/11 00:27:12;;;;;;;15.20;14.00;;;;;;;;;;5214741;28;20025;-80
2022/09/11 00:29:43;;;;;;;15.43;14.43;;;;;;;;;;5214102;28;20025;-80
2022/09/11 00:32:14;;;;;;;16.50;15.20;;;;;;;;;;5214947;28;20025;-80
2022/09/11 00:34:45;;;;;;;17.67;16.48;;;;;;;;;;5212943;28;20026;-79
2022/09/11 00:37:15;;;;;;;14.55;13.48;;;;;;;;;;5212765;28;20017;-79
2022/09/11 00:39:46;;;;;;;16.95;15.35;;;;;;;;;;5213800;28;20105;-79
2022/09/11 00:42:16;;;;;;;16.92;15.38;;;;;;;;;;5213847;28;20020;-80
2022/09/11 00:44:46;;;;;;;19.52;17.90;;;;;;;;;;5214104;28;20014;-78
2022/09/11 00:47:17;;;;;;;20.80;19.05;;;;;;;;;;5214485;28;20025;-79
2022/09/11 00:49:51;;;;;;;23.17;20.85;;;;;;;;;;5214390;28;20022;-80
2022/09/11 00:52:21;;;;;;;18.45;17.05;;;;;;;;;;5212964;28;20029;-81
2022/09/11 00:54:58;;;;;;;19.77;18.33;;;;;;;;;;5214177;28;20048;-79
2022/09/11 00:57:31;;;;;;;17.90;16.67;;;;;;;;;;5216236;28;20257;-79
2022/09/11 01:00:03;;;;;;;17.73;16.25;;;;;;;;;;5215505;28;20048;-79
2022/09/11 01:02:35;;;;;;;18.50;17.10;;;;;;;;;;5213759;28;20028;-79
2022/09/11 01:05:06;;;;;;;16.08;14.85;;;;;;;;;;5214400;28;20009;-79
2022/09/11 01:07:37;;;;;;;19.33;17.33;;;;;;;;;;5213888;28;20394;-80
2022/09/11 01:10:09;;;;;;;14.32;13.07;;;;;;;;;;5213484;28;20290;-80
2022/09/11 01:12:51;;;;;;;23.13;17.77;;;;;;;;;;5214235;28;20029;-79
2022/09/11 01:15:32;;;;;;;23.48;21.33;;;;;;;;;;5215643;28;20025;-80
2022/09/11 01:18:13;;;;;;;21.60;19.70;;;;;;;;;;5214936;28;20049;-79
2022/09/11 01:20:47;;;;;;;21.05;19.33;;;;;;;;;;5213945;28;20022;-79
2022/09/11 01:26:17;;;;;;;23.15;20.95;;;;;;;;;;5203063;28;20057;-78
2022/09/11 01:28:56;;;;;;;23.23;21.13;;;;;;;;;;5206707;28;20021;-80
2022/09/11 01:31:31;;;;;;;19.08;17.25;;;;;;;;;;5208036;28;20013;-79
2022/09/11 01:34:05;;;;;;;20.85;19.10;;;;;;;;;;5208529;28;20025;-79
2022/09/11 01:36:40;;;;;;;20.33;18.73;;;;;;;;;;5208964;28;20174;-81
2022/09/11 01:39:11;;;;;;;19.00;17.45;;;;;;;;;;5210100;28;20454;-81
2022/09/11 01:41:46;;;;;;;20.13;18.42;;;;;;;;;;5210287;28;20203;-80
2022/09/11 01:44:33;;;;;;;25.20;22.73;;;;;;;;;;5209603;28;20014;-80
2022/09/11 01:47:04;;;;;;;22.73;20.63;;;;;;;;;;5209306;28;20417;-81
2022/09/11 01:49:37;;;;;;;25.75;23.45;;;;;;;;;;5210264;28;20128;-80
2022/09/11 01:52:09;;;;;;;24.20;22.20;;;;;;;;;;5211745;28;20021;-81
2022/09/11 01:54:52;;;;;;;25.40;23.25;;;;;;;;;;5211112;28;20391;-81
2022/09/11 01:57:29;;;;;;;23.15;20.92;;;;;;;;;;5216338;28;20124;-82
2022/09/11 02:00:00;;;;;;;24.42;22.27;;;;;;;;;;5215194;28;20014;-80
2022/09/11 02:02:35;;;;;;;29.90;26.95;;;;;;;;;;5210744;28;20029;-81
2022/09/11 02:05:08;;;;;;;22.88;20.77;;;;;;;;;;5210017;28;20033;-81
2022/09/11 02:07:47;;;;;;;24.63;22.45;;;;;;;;;;5211133;28;20020;-81
2022/09/11 02:10:22;;;;;;;22.38;20.60;;;;;;;;;;5210722;28;20588;-81
2022/09/11 02:12:57;;;;;;;25.05;22.92;;;;;;;;;;5211064;28;20549;-80
2022/09/11 02:15:32;;;;;;;22.50;20.63;;;;;;;;;;5209444;28;20364;-81
2022/09/11 02:18:05;;;;;;;24.73;22.65;;;;;;;;;;5212023;28;20021;-81
2022/09/11 02:20:35;;;;;;;26.13;23.55;;;;;;;;;;5210867;28;20025;-82
2022/09/11 02:23:05;;;;;;;26.33;23.83;;;;;;;;;;5210973;28;20081;-79
2022/09/11 02:25:36;;;;;;;23.88;21.98;;;;;;;;;;5209163;28;20041;-79
2022/09/11 02:28:06;;;;;;;25.90;23.95;;;;;;;;;;5209133;28;20029;-78
2022/09/11 02:30:41;;;;;;;29.50;26.63;;;;;;;;;;5207754;28;20029;-79
2022/09/11 02:33:28;;;;;;;28.45;25.50;;;;;;;;;;5208089;28;20028;-78
2022/09/11 02:36:17;;;;;;;29.38;26.67;;;;;;;;;;5207802;28;20040;-78
2022/09/11 02:39:05;;;;;;;27.92;25.38;;;;;;;;;;5206108;28;20033;-77
2022/09/11 02:41:41;;;;;;;30.65;27.73;;;;;;;;;;5204848;28;20055;-77
2022/09/11 02:44:23;;;;;;;27.60;25.05;;;;;;;;;;5205675;28;20121;-79
2022/09/11 02:47:04;;;;;;;28.42;25.88;;;;;;;;;;5207685;28;20026;-78
2022/09/11 02:49:34;;;;;;;25.38;23.17;;;;;;;;;;5205648;28;20404;-77
2022/09/11 02:52:13;;;;;;;29.23;26.73;;;;;;;;;;5205279;28;20036;-77
2022/09/11 02:55:07;;;;;;;25.50;23.50;;;;;;;;;;5204448;28;20276;-77
2022/09/11 02:57:41;;;;;;;22.95;21.08;;;;;;;;;;5203959;28;20051;-77
2022/09/11 03:00:12;;;;;;;24.13;21.70;;;;;;;;;;5205615;28;20045;-78
2022/09/11 03:02:43;;;;;;;24.52;22.17;;;;;;;;;;5207477;28;20463;-77
2022/09/11 03:05:13;;;;;;;24.83;22.55;;;;;;;;;;5207058;28;20049;-80
2022/09/11 03:07:43;;;;;;;24.63;22.50;;;;;;;;;;5208370;28;20116;-80
2022/09/11 03:10:13;;;;;;;26.70;24.03;;;;;;;;;;5208196;28;20097;-79
2022/09/11 03:12:44;;;;;;;28.02;25.52;;;;;;;;;;5209739;28;20263;-80
2022/09/11 03:15:16;;;;;;;26.33;23.80;;;;;;;;;;5207229;28;20130;-81
2022/09/11 03:17:46;;;;;;;31.50;28.30;;;;;;;;;;5209108;28;20268;-80
2022/09/11 03:20:16;;;;;;;33.87;29.13;;;;;;;;;;5207573;28;20467;-80
2022/09/11 03:22:46;;;;;;;38.50;29.40;;;;;;;;;;5207626;28;20278;-80
2022/09/11 03:25:17;;;;;;;36.97;28.13;;;;;;;;;;5207699;28;20458;-79
2022/09/11 03:27:47;;;;;;;28.23;25.58;;;;;;;;;;5208873;28;20294;-79
2022/09/11 03:30:17;;;;;;;45.07;25.63;;;;;;;;;;5208403;28;20021;-80
2022/09/11 03:32:47;;;;;;;41.83;25.92;;;;;;;;;;5207118;28;20272;-79
2022/09/11 03:35:19;;;;;;;25.63;23.50;;;;;;;;;;5207399;28;20159;-79
2022/09/11 03:37:50;;;;;;;27.33;25.08;;;;;;;;;;5208131;28;20395;-79
2022/09/11 03:40:20;;;;;;;26.85;24.65;;;;;;;;;;5207224;28;20120;-79
2022/09/11 03:42:51;;;;;;;26.13;24.08;;;;;;;;;;5208335;28;20387;-80
2022/09/11 03:45:22;;;;;;;53.83;26.00;;;;;;;;;;5207659;28;20202;-79
2022/09/11 03:47:52;;;;;;;24.47;22.37;;;;;;;;;;5208735;28;20538;-80
2022/09/11 03:50:22;;;;;;;28.60;25.73;;;;;;;;;;5206457;28;20256;-79
2022/09/11 03:52:53;;;;;;;35.40;26.17;;;;;;;;;;5207466;28;20049;-80
2022/09/11 03:55:23;;;;;;;32.73;26.10;;;;;;;;;;5205993;28;20337;-79
2022/09/11 03:57:53;;;;;;;25.70;23.00;;;;;;;;;;5207413;28;20650;-77
2022/09/11 04:00:24;;;;;;;58.90;22.33;;;;;;;;;;5207218;28;20752;-80
2022/09/11 04:02:54;;;;;;;29.17;25.48;;;;;;;;;;5207701;28;20746;-79
2022/09/11 04:05:25;;;;;;;42.80;24.48;;;;;;;;;;5207491;28;20049;-80
2022/09/11 04:07:55;;;;;;;32.28;22.95;;;;;;;;;;5210516;28;20021;-80
2022/09/11 04:10:25;;;;;;;26.55;23.70;;;;;;;;;;5209169;28;20087;-81
2022/09/11 04:12:56;;;;;;;70.70;25.13;;;;;;;;;;5215450;28;20046;-79
2022/09/11 04:15:26;;;;;;;57.13;24.00;;;;;;;;;;5209635;28;20024;-80
2022/09/11 04:17:56;;;;;;;28.73;24.08;;;;;;;;;;5208039;28;20272;-80
2022/09/11 04:20:26;;;;;;;58.00;23.73;;;;;;;;;;5207859;28;20021;-80
2022/09/11 04:22:57;;;;;;;33.90;24.50;;;;;;;;;;5208261;28;20053;-80
2022/09/11 04:25:27;;;;;;;37.67;26.58;;;;;;;;;;5205289;28;20481;-80
2022/09/11 04:27:57;;;;;;;23.33;21.53;;;;;;;;;;5207905;28;20459;-80
2022/09/11 04:30:28;;;;;;;41.75;21.65;;;;;;;;;;5207121;28;20275;-80
2022/09/11 04:32:58;;;;;;;33.25;23.92;;;;;;;;;;5205619;28;20091;-80
2022/09/11 04:35:28;;;;;;;25.40;22.20;;;;;;;;;;5204471;28;20021;-81
2022/09/11 04:37:58;;;;;;;62.05;24.98;;;;;;;;;;5207564;28;20276;-81
2022/09/11 04:40:29;;;;;;;25.40;22.97;;;;;;;;;;5207109;28;20018;-79
2022/09/11 04:43:00;;;;;;;23.93;21.90;;;;;;;;;;5207252;28;20260;-80
2022/09/11 04:45:32;;;;;;;33.70;23.63;;;;;;;;;;5205608;28;20355;-79
2022/09/11 04:48:02;;;;;;;23.38;21.25;;;;;;;;;;5204673;28;20030;-79
2022/09/11 04:50:32;;;;;;;24.55;18.70;;;;;;;;;;5205077;28;20468;-79
2022/09/11 04:53:03;;;;;;;37.25;24.13;;;;;;;;;;5205899;28;20362;-79
2022/09/11 04:55:33;;;;;;;25.75;23.42;;;;;;;;;;5205709;28;20314;-78
2022/09/11 04:58:03;;;;;;;24.57;22.53;;;;;;;;;;5206605;28;20018;-79
2022/09/11 05:00:34;;;;;;;48.30;23.25;;;;;;;;;;5206064;28;20252;-79
2022/09/11 05:03:04;;;;;;;40.92;23.75;;;;;;;;;;5203590;28;20029;-79
2022/09/11 05:05:34;;;;;;;26.43;22.73;;;;;;;;;;5207095;28;20090;-79
2022/09/11 05:08:05;;;;;;;33.53;22.60;;;;;;;;;;5210050;28;20853;-79
2022/09/11 05:10:36;;;;;;;24.80;22.58;;;;;;;;;;5210251;28;20426;-79
2022/09/11 05:13:07;;;;;;;25.48;23.05;;;;;;;;;;5213465;28;20332;-81
2022/09/11 05:15:37;;;;;;;45.90;23.27;;;;;;;;;;5212349;28;20163;-80
2022/09/11 05:18:07;;;;;;;43.97;24.70;;;;;;;;;;5210997;28;20035;-79
2022/09/11 05:20:38;;;;;;;27.97;23.13;;;;;;;;;;5210485;28;20260;-79
2022/09/11 05:23:12;;;;;;;40.15;26.15;;;;;;;;;;5210927;28;20275;-80
2022/09/11 05:25:42;;;;;;;44.10;28.25;;;;;;;;;;5229792;28;20030;-79
2022/09/11 05:28:12;;;;;;;39.47;26.60;;;;;;;;;;5227073;28;20032;-78
2022/09/11 05:30:42;;;;;;;35.03;24.25;;;;;;;;;;5209978;28;20075;-79
2022/09/11 05:33:13;;;;;;;52.85;23.83;;;;;;;;;;5206526;28;20040;-79
2022/09/11 05:35:43;;;;;;;34.33;24.75;;;;;;;;;;5215284;28;20629;-78
2022/09/11 05:38:14;;;;;;;36.00;24.45;;;;;;;;;;5222636;28;20018;-79
2022/09/11 05:40:48;;;;;;;26.30;23.73;;;;;;;;;;5209308;28;20035;-78
2022/09/11 05:43:18;;;;;;;24.77;22.73;;;;;;;;;;5207346;28;20268;-80
2022/09/11 05:45:53;;;;;;;51.58;24.20;;;;;;;;;;5219322;28;20536;-79
2022/09/11 05:48:24;;;;;;;55.67;24.30;;;;;;;;;;5228510;28;20025;-80
2022/09/11 05:50:55;;;;;;;55.08;25.85;;;;;;;;;;5229604;28;20017;-77
2022/09/11 05:53:32;;;;;;;49.08;24.33;;;;;;;;;;5212170;28;20129;-77
2022/09/11 05:56:13;;;;;;;27.02;23.95;;;;;;;;;;5204812;28;20028;-77
2022/09/11 05:58:44;;;;;;;22.40;20.25;;;;;;;;;;5219033;28;20183;-77
2022/09/11 06:01:16;;;;;;;35.10;23.88;;;;;;;;;;5228523;28;20083;-77
2022/09/11 06:03:48;;;;;;;28.55;23.77;;;;;;;;;;5226544;28;20078;-77
2022/09/11 06:06:19;;;;;;;56.35;24.48;;;;;;;;;;5226383;28;20135;-80
2022/09/11 06:08:50;;;;;;;50.22;24.25;;;;;;;;;;5227266;28;20033;-78
2022/09/11 06:11:21;;;;;;;30.88;21.00;;;;;;;;;;5229008;28;20053;-78
2022/09/11 06:13:51;;;;;;;30.02;23.40;;;;;;;;;;5228259;28;20025;-80
2022/09/11 06:16:22;;;;;;;57.70;23.50;;;;;;;;;;5228207;28;20075;-80
2022/09/11 06:18:53;;;;;;;29.00;20.63;;;;;;;;;;5230117;28;20028;-79
2022/09/11 06:21:26;;;;;;;83.75;26.35;;;;;;;;;;5229672;28;20020;-79
2022/09/11 06:23:56;;;;;;;50.92;22.80;;;;;;;;;;5226898;28;20029;-80
2022/09/11 06:26:28;;;;;;;24.15;21.77;;;;;;;;;;5229479;28;20021;-79
2022/09/11 06:28:58;;;;;;;47.65;24.52;;;;;;;;;;5225524;28;20039;-80
2022/09/11 06:31:29;;;;;;;75.68;23.77;;;;;;;;;;5228267;28;20025;-79
2022/09/11 06:33:59;;;;;;;24.23;20.15;;;;;;;;;;5227565;28;20017;-79
2022/09/11 06:36:30;;;;;;;46.00;20.25;;;;;;;;;;5229775;28;20020;-79
2022/09/11 06:39:01;;;;;;;20.42;18.88;;;;;;;;;;5227239;28;20393;-80
2022/09/11 06:41:31;;;;;;;23.90;21.52;;;;;;;;;;5228496;28;20260;-80
2022/09/11 06:44:01;;;;;;;25.33;22.60;;;;;;;;;;5226921;28;20647;-80
2022/09/11 06:46:32;;;;;;;19.90;17.42;;;;;;;;;;5227694;28;20078;-79
2022/09/11 06:49:02;;;;;;;20.60;18.70;;;;;;;;;;5227757;28;20063;-79
2022/09/11 06:51:33;;;;;;;29.87;17.13;;;;;;;;;;5227283;28;20329;-79
2022/09/11 06:54:04;;;;;;;28.42;19.60;;;;;;;;;;5224572;28;20267;-79
2022/09/11 06:59:43;;;;;;;33.25;19.42;;;;;;;;;;5211930;28;20120;-80
2022/09/11 07:02:13;;;;;;;20.92;19.15;;;;;;;;;;5206538;28;20025;-79
2022/09/11 07:04:45;;;;;;;31.77;19.45;;;;;;;;;;5207868;28;20073;-79
2022/09/11 07:07:15;;;;;;;28.13;20.90;;;;;;;;;;5207331;28;20025;-78
2022/09/11 07:09:46;;;;;;;27.53;17.17;;;;;;;;;;5208956;28;20028;-79
2022/09/11 07:12:16;;;;;;;20.27;18.43;;;;;;;;;;5217565;28;20344;-80
2022/09/11 07:14:46;;;;;;;19.95;18.02;;;;;;;;;;5217116;28;20833;-79
2022/09/11 07:17:17;;;;;;;22.75;20.75;;;;;;;;;;5207641;28;20526;-80
2022/09/11 07:19:47;;;;;;;35.38;21.70;;;;;;;;;;5208526;28;20021;-79
2022/09/11 07:22:18;;;;;;;26.10;19.77;;;;;;;;;;5207638;28;20034;-79
2022/09/11 07:24:51;;;;;;;18.60;16.95;;;;;;;;;;5217756;22;20701;-83
2022/09/11 07:27:21;;;;;;;28.70;25.92;;;;;;;;;;5213730;28;20045;-82
2022/09/11 07:29:52;;;;;;;74.40;34.33;;;;;;;;;;5213780;28;20025;-83
2022/09/11 07:32:22;;;;;;;55.10;35.00;;;;;;;;;;5195610;28;20041;-82
2022/09/11 07:34:52;;;;;;;42.85;33.70;;;;;;;;;;5212618;28;20367;-82
2022/09/11 07:37:22;;;;;;;56.45;36.17;;;;;;;;;;5213351;28;20021;-82
2022/09/11 07:39:53;;;;;;;38.13;31.63;;;;;;;;;;5213042;28;20025;-82
2022/09/11 07:42:23;;;;;;;41.00;32.50;;;;;;;;;;5213060;28;20092;-82
2022/09/11 07:44:54;;;;;;;60.67;35.28;;;;;;;;;;5193949;28;20026;-83
2022/09/11 07:47:24;;;;;;;40.72;30.23;;;;;;;;;;5213235;28;20018;-81
2022/09/11 07:49:54;;;;;;;33.53;30.53;;;;;;;;;;5212636;28;20091;-82
2022/09/11 07:52:25;;;;;;;37.28;32.72;;;;;;;;;;5212930;28;20622;-82
2022/09/11 07:54:56;;;;;;;38.47;34.08;;;;;;;;;;5212098;28;20017;-82
2022/09/11 07:57:28;;;;;;;42.22;30.15;;;;;;;;;;5212746;28;20060;-83
2022/09/11 07:59:59;;;;;;;28.55;26.10;;;;;;;;;;5212256;28;20014;-82
2022/09/11 08:02:29;;;;;;;26.25;23.75;;;;;;;;;;5194668;28;20043;-82
2022/09/11 08:05:00;;;;;;;27.80;25.30;;;;;;;;;;5211398;28;20594;-82
2022/09/11 08:07:31;;;;;;;25.38;23.02;;;;;;;;;;5194789;28;20264;-82
2022/09/11 08:10:02;;;;;;;20.35;18.38;;;;;;;;;;5212139;28;20025;-82
2022/09/11 08:12:33;;;;;;;21.77;19.38;;;;;;;;;;5211596;28;20022;-81
2022/09/11 08:15:03;;;;;;;20.13;18.23;;;;;;;;;;5210866;28;20021;-82
2022/09/11 08:17:34;;;;;;;17.58;16.00;;;;;;;;;;5212434;28;20029;-82
2022/09/11 08:20:04;;;;;;;19.50;17.90;;;;;;;;;;5211524;28;20096;-82
2022/09/11 08:22:34;;;;;;;17.25;15.85;;;;;;;;;;5194341;28;20330;-82
2022/09/11 08:25:05;;;;;;;16.60;15.43;;;;;;;;;;5211943;28;20030;-82
2022/09/11 08:27:36;;;;;;;18.23;16.42;;;;;;;;;;5195621;28;20270;-82
2022/09/11 08:30:07;;;;;;;15.75;14.13;;;;;;;;;;5213691;28;20372;-82
2022/09/11 08:32:39;;;;;;;16.17;14.52;;;;;;;;;;5212156;28;20028;-82
2022/09/11 08:35:09;;;;;;;17.77;16.27;;;;;;;;;;5192794;28;20028;-82
2022/09/11 08:37:39;;;;;;;17.17;15.87;;;;;;;;;;5211566;28;20387;-81
2022/09/11 08:40:10;;;;;;;17.75;16.15;;;;;;;;;;5194923;28;20765;-82
2022/09/11 08:42:42;;;;;;;16.50;15.10;;;;;;;;;;5215163;28;20013;-82
2022/09/11 08:45:14;;;;;;;18.88;17.17;;;;;;;;;;5214254;28;20014;-82
2022/09/11 08:47:53;;;;;;;17.08;15.38;;;;;;;;;;5215335;28;20443;-82
2022/09/11 08:50:24;;;;;;;19.08;17.33;;;;;;;;;;5215529;28;20029;-82
2022/09/11 08:52:55;;;;;;;19.77;18.00;;;;;;;;;;5197573;28;20033;-82
2022/09/11 08:55:34;;;;;;;20.92;19.17;;;;;;;;;;5196835;28;20025;-81
2022/09/11 08:58:08;;;;;;;16.65;14.95;;;;;;;;;;5197518;28;20025;-83
2022/09/11 09:00:42;;;;;;;21.30;19.20;;;;;;;;;;5215496;28;20029;-82
2022/09/11 09:03:19;;;;;;;22.95;21.10;;;;;;;;;;5198090;28;20017;-82
2022/09/11 09:05:54;;;;;;;25.75;23.05;;;;;;;;;;5214681;28;20036;-82
2022/09/11 09:08:24;;;;;;;22.88;20.80;;;;;;;;;;5214852;28;20028;-82
2022/09/11 09:11:10;;;;;;;22.23;20.30;;;;;;;;;;5197383;28;20029;-82
2022/09/11 09:13:41;;;;;;;25.17;22.70;;;;;;;;;;5196543;28;20368;-82
2022/09/11 09:16:17;;;;;;;23.67;21.30;;;;;;;;;;5215014;28;20025;-82
2022/09/11 09:18:59;;;;;;;27.08;24.67;;;;;;;;;;5215577;28;20071;-82
2022/09/11 09:21:48;;;;;;;27.38;23.27;;;;;;;;;;5214957;28;20096;-83
2022/09/11 09:24:18;;;;;;;26.98;24.70;;;;;;;;;;5214555;28;20022;-82
2022/09/11 09:26:49;;;;;;;26.10;23.65;;;;;;;;;;5197462;28;20025;-83
2022/09/11 09:29:23;;;;;;;28.95;25.88;;;;;;;;;;5198851;28;20025;-82
2022/09/11 09:31:58;;;;;;;25.90;23.60;;;;;;;;;;5223398;28;20018;-82
2022/09/11 09:34:31;;;;;;;29.85;27.35;;;;;;;;;;5219673;28;20025;-81
2022/09/11 09:37:05;;;;;;;31.88;28.58;;;;;;;;;;5221628;28;20032;-81
2022/09/11 09:39:36;;;;;;;30.33;27.25;;;;;;;;;;5203338;28;20029;-82
2022/09/11 09:42:07;;;;;;;29.00;25.90;;;;;;;;;;5203866;28;20020;-82
2022/09/11 09:44:37;;;;;;;28.98;25.90;;;;;;;;;;5200403;28;20017;-83
2022/09/11 09:47:11;;;;;;;27.55;24.83;;;;;;;;;;5215164;28;20472;-83
2022/09/11 09:49:42;;;;;;;28.95;26.40;;;;;;;;;;5214131;28;20022;-83
2022/09/11 09:52:17;;;;;;;26.80;24.30;;;;;;;;;;5213765;28;20021;-82
2022/09/11 09:55:01;;;;;;;30.02;26.75;;;;;;;;;;5195580;28;20236;-83
2022/09/11 09:57:33;;;;;;;25.17;23.08;;;;;;;;;;5213922;28;20022;-83
2022/09/11 10:00:23;;;;;;;21.63;19.55;;;;;;;;;;5213861;28;20025;-83
2022/09/11 10:02:55;;;;;;;25.52;23.23;;;;;;;;;;5212702;28;20484;-82
2022/09/11 10:05:27;;;;;;;23.67;21.48;;;;;;;;;;5211998;28;20526;-82
2022/09/11 10:08:05;;;;;;;22.65;20.65;;;;;;;;;;5213297;28;20021;-83
2022/09/11 10:10:37;;;;;;;24.08;21.42;;;;;;;;;;5212488;28;20471;-83
2022/09/11 10:13:10;;;;;;;22.30;19.25;;;;;;;;;;5213357;28;20482;-83
2022/09/11 10:15:41;;;;;;;20.70;18.95;;;;;;;;;;5193057;28;20028;-83
2022/09/11 10:18:27;;;;;;;24.17;21.70;;;;;;;;;;5195063;28;20013;-83
2022/09/11 10:21:10;;;;;;;19.95;18.25;;;;;;;;;;5212146;28;20025;-84
2022/09/11 10:23:43;;;;;;;19.40;17.92;;;;;;;;;;5211881;28;20026;-83
2022/09/11 10:26:14;;;;;;;20.50;18.45;;;;;;;;;;5212517;28;20033;-83
2022/09/11 10:28:45;;;;;;;23.55;19.55;;;;;;;;;;5213012;28;20018;-83
2022/09/11 10:31:16;;;;;;;20.98;19.17;;;;;;;;;;5212450;28;20026;-83
2022/09/11 10:33:49;;;;;;;20.73;19.05;;;;;;;;;;5211603;28;20464;-83
2022/09/11 10:36:21;;;;;;;20.35;18.63;;;;;;;;;;5195323;28;20025;-83
2022/09/11 10:38:51;;;;;;;20.98;18.77;;;;;;;;;;5214581;28;20021;-81
2022/09/11 10:41:23;;;;;;;23.30;18.15;;;;;;;;;;5216570;28;20460;-81
2022/09/11 10:44:01;;;;;;;19.90;18.05;;;;;;;;;;5215633;28;20025;-81
2022/09/11 10:46:36;;;;;;;12.63;11.63;;;;;;;;;;5215812;28;20031;-81
2022/09/11 10:49:20;;;;;;;20.30;18.48;;;;;;;;;;5213678;28;20051;-82
2022/09/11 10:52:21;;;;;;;17.58;16.08;;;;;;;;;;5213128;28;20024;-82
2022/09/11 10:55:06;;;;;;;20.38;18.58;;;;;;;;;;5199510;28;20049;-82
2022/09/11 10:57:44;;;;;;;20.25;17.27;;;;;;;;;;5213055;28;20033;-82
2022/09/11 11:00:18;;;;;;;12.48;11.38;;;;;;;;;;5194736;28;20029;-82
2022/09/11 11:03:15;;;;;;;15.13;13.77;;;;;;;;;;5211821;28;20557;-83
2022/09/11 11:05:46;;;;;;;17.38;15.80;;;;;;;;;;5172199;28;20033;-82
2022/09/11 11:08:20;;;;;;;13.57;12.48;;;;;;;;;;5195505;28;20056;-82
2022/09/11 11:11:03;;;;;;;13.80;11.52;;;;;;;;;;5193190;28;20116;-82
2022/09/11 11:13:45;;;;;;;21.80;19.67;;;;;;;;;;5211917;28;20029;-82
2022/09/11 11:16:19;;;;;;;21.13;19.15;;;;;;;;;;5194015;28;20097;-82
2022/09/11 11:18:49;;;;;;;16.95;15.50;;;;;;;;;;5194499;28;20056;-82
2022/09/11 11:21:28;;;;;;;16.77;15.20;;;;;;;;;;5211303;28;20025;-83
2022/09/11 11:24:08;;;;;;;18.15;16.52;;;;;;;;;;5211991;28;20021;-83
2022/09/11 11:26:48;;;;;;;18.77;17.05;;;;;;;;;;5212368;28;20086;-82
2022/09/11 11:29:21;;;;;;;19.13;16.20;;;;;;;;;;5212820;28;20052;-83
2022/09/11 11:32:10;;;;;;;16.80;15.23;;;;;;;;;;5212264;28;20025;-83
2022/09/11 11:35:11;;;;;;;21.80;19.85;;;;;;;;;;5211138;28;20021;-82
2022/09/11 11:37:44;;;;;;;18.83;17.10;;;;;;;;;;5181986;28;20399;-83
2022/09/11 11:40:14;;;;;;;21.50;19.65;;;;;;;;;;5211988;28;20028;-83
2022/09/11 11:42:58;;;;;;;20.60;18.83;;;;;;;;;;5211431;28;20098;-82
2022/09/11 11:45:39;;;;;;;40.95;20.67;;;;;;;;;;5193236;28;20059;-82
2022/09/11 11:48:12;;;;;;;15.65;14.30;;;;;;;;;;5193958;28;20031;-82
2022/09/11 11:50:44;;;;;;;17.20;15.80;;;;;;;;;;5193945;28;20025;-82
2022/09/11 11:53:15;;;;;;;14.18;12.82;;;;;;;;;;5211398;28;20103;-82
2022/09/11 11:55:53;;;;;;;11.93;10.90;;;;;;;;;;5211796;28;20026;-83
2022/09/11 11:58:38;;;;;;;14.02;11.98;;;;;;;;;;5212487;28;20024;-82
2022/09/11 12:01:23;;;;;;;20.90;15.55;;;;;;;;;;5193697;28;20530;-83
2022/09/11 12:03:58;;;;;;;13.57;12.48;;;;;;;;;;5194019;28;20052;-82
2022/09/11 12:06:28;;;;;;;12.30;11.40;;;;;;;;;;5194535;28;20026;-82
2022/09/11 12:08:59;;;;;;;13.07;12.15;;;;;;;;;;5212002;28;20105;-84
2022/09/11 12:11:30;;;;;;;12.38;11.18;;;;;;;;;;5214078;28;20032;-82
2022/09/11 12:14:01;;;;;;;7.43;6.82;;;;;;;;;;5214487;28;20022;-83
2022/09/11 12:16:32;;;;;;;6.85;6.13;;;;;;;;;;5215604;28;20040;-84
2022/09/11 12:19:04;;;;;;;8.38;7.28;;;;;;;;;;5216730;28;20075;-84
2022/09/11 12:21:36;;;;;;;6.88;6.47;;;;;;;;;;5216050;28;20056;-83
2022/09/11 12:24:06;;;;;;;6.93;6.50;;;;;;;;;;5214568;28;20013;-84
2022/09/11 12:26:36;;;;;;;7.35;6.75;;;;;;;;;;5195745;28;20112;-84
2022/09/11 12:29:19;;;;;;;6.47;6.00;;;;;;;;;;5204795;28;20018;-83
2022/09/11 12:31:49;;;;;;;9.77;9.07;;;;;;;;;;5221433;28;20260;-83
2022/09/11 12:34:19;;;;;;;9.63;8.93;;;;;;;;;;5220702;28;20081;-83
2022/09/11 12:36:58;;;;;;;7.80;7.20;;;;;;;;;;5221529;28;20027;-83
2022/09/11 12:39:30;;;;;;;6.65;6.15;;;;;;;;;;5204334;28;20391;-82
2022/09/11 12:42:29;;;;;;;8.38;7.70;;;;;;;;;;5220994;28;20013;-83
2022/09/11 12:45:00;;;;;;;6.50;6.10;;;;;;;;;;5220535;28;20021;-83
2022/09/11 12:47:38;;;;;;;8.45;6.57;;;;;;;;;;5220039;28;20375;-84
2022/09/11 12:50:11;;;;;;;7.15;6.55;;;;;;;;;;5218114;28;20173;-83
2022/09/11 12:52:45;;;;;;;7.28;6.88;;;;;;;;;;5201308;28;20372;-83
2022/09/11 12:55:30;;;;;;;5.63;5.18;;;;;;;;;;5200885;28;20029;-83
2022/09/11 12:58:05;;;;;;;7.90;7.05;;;;;;;;;;5219339;28;20020;-83
2022/09/11 13:00:38;;;;;;;6.25;5.60;;;;;;;;;;5217999;28;20016;-82
2022/09/11 13:03:29;;;;;;;9.40;6.65;;;;;;;;;;5216781;28;20480;-83
2022/09/11 13:06:01;;;;;;;8.63;7.55;;;;;;;;;;5216470;28;20037;-82
2022/09/11 13:08:35;;;;;;;7.68;7.10;;;;;;;;;;5213013;28;20017;-83
2022/09/11 13:11:24;;;;;;;6.50;6.00;;;;;;;;;;5212449;28;20021;-83
2022/09/11 13:13:54;;;;;;;;;;;;;;;;;;5212033;28;20028;-82
2022/09/11 13:16:25;;;;;;;4.97;4.65;;;;;;;;;;5212154;28;20341;-82
2022/09/11 13:19:12;;;;;;;6.22;5.65;;;;;;;;;;5212076;28;20048;-82
2022/09/11 13:21:43;;;;;;;5.95;5.55;;;;;;;;;;5213481;28;20017;-82
2022/09/11 13:24:27;;;;;;;6.10;5.68;;;;;;;;;;5189270;28;20022;-83
2022/09/11 13:26:58;;;;;;;6.28;5.70;;;;;;;;;;5185442;28;20120;-83
2022/09/11 13:29:30;;;;;;;4.55;4.35;;;;;;;;;;5197145;28;20068;-84
2022/09/11 13:32:12;;;;;;;5.35;4.60;;;;;;;;;;5222359;28;20025;-83
2022/09/11 13:34:47;;;;;;;5.25;4.93;;;;;;;;;;5221729;28;20022;-83
2022/09/11 13:37:30;;;;;;;6.60;5.60;;;;;;;;;;5203511;28;20029;-82
2022/09/11 13:40:01;;;;;;;6.75;5.88;;;;;;;;;;5221423;28;20025;-81
2022/09/11 13:42:32;;;;;;;6.05;5.63;;;;;;;;;;5221656;28;20013;-82
2022/09/11 13:45:03;;;;;;;6.22;5.63;;;;;;;;;;5222198;28;20031;-82
2022/09/11 13:47:39;;;;;;;4.97;4.68;;;;;;;;;;5222243;28;20085;-83
2022/09/11 13:50:11;;;;;;;5.60;5.10;;;;;;;;;;5203705;28;20033;-83
2022/09/11 13:52:43;;;;;;;5.22;4.82;;;;;;;;;;5221006;28;20081;-83
2022/09/11 13:55:21;;;;;;;4.57;4.28;;;;;;;;;;5221334;28;20100;-82
2022/09/11 13:57:59;;;;;;;5.22;4.68;;;;;;;;;;5221689;28;20028;-82
2022/09/11 14:00:36;;;;;;;5.07;4.60;;;;;;;;;;5221371;28;20042;-82
2022/09/11 14:03:29;;;;;;;4.97;4.72;;;;;;;;;;5203328;28;20041;-82
2022/09/11 14:06:00;;;;;;;4.38;4.07;;;;;;;;;;5220935;28;20068;-82
2022/09/11 14:08:33;;;;;;;4.40;4.20;;;;;;;;;;5220406;28;20085;-82
2022/09/11 14:11:08;;;;;;;5.50;5.18;;;;;;;;;;5202704;28;20053;-82
2022/09/11 14:13:48;;;;;;;4.43;4.22;;;;;;;;;;5201443;28;20059;-83
2022/09/11 14:16:20;;;;;;;6.50;5.93;;;;;;;;;;5202056;28;20017;-82
2022/09/11 14:18:54;;;;;;;5.07;4.72;;;;;;;;;;5202349;28;20068;-84
2022/09/11 14:21:32;;;;;;;4.22;4.03;;;;;;;;;;5219343;28;20041;-82
2022/09/11 14:24:06;;;;;;;5.00;4.65;;;;;;;;;;5200887;28;20109;-83
2022/09/11 14:26:40;;;;;;;5.00;4.43;;;;;;;;;;5220348;28;20029;-83
2022/09/11 14:29:11;;;;;;;6.10;5.00;;;;;;;;;;5219531;28;20404;-83
2022/09/11 14:31:43;;;;;;;4.72;4.43;;;;;;;;;;5220295;28;20025;-82
2022/09/11 14:34:14;;;;;;;6.13;4.07;;;;;;;;;;5201747;28;20026;-82
2022/09/11 14:37:01;;;;;;;4.47;3.78;;;;;;;;;;5218777;28;20021;-82
2022/09/11 14:39:37;;;;;;;4.25;4.03;;;;;;;;;;5218995;28;20105;-82
2022/09/11 14:42:12;;;;;;;5.05;3.88;;;;;;;;;;5231038;22;20308;-90
2022/09/11 14:44:44;;;;;;;5.03;4.72;;;;;;;;;;5202942;28;20058;-89
2022/09/11 14:47:18;;;;;;;5.28;4.72;;;;;;;;;;5197315;28;20021;-89
2022/09/11 14:49:52;;;;;;;5.00;4.70;;;;;;;;;;5204823;28;20022;-89
2022/09/11 14:52:26;;;;;;;4.78;4.30;;;;;;;;;;5206495;28;20446;-90
2022/09/11 14:54:57;;;;;;;6.22;5.82;;;;;;;;;;5229002;28;20453;-91
2022/09/11 14:57:29;;;;;;;5.28;4.88;;;;;;;;;;5200090;28;20021;-90
2022/09/11 15:00:00;;;;;;;5.30;4.97;;;;;;;;;;5200080;28;20017;-89
2022/09/11 15:02:30;;;;;;;6.50;5.82;;;;;;;;;;5221508;28;20073;-90
2022/09/11 15:05:00;;;;;;;5.28;4.75;;;;;;;;;;5208506;28;20052;-90